sensor_id;sensor_type;location;lat;lon;timestamp;temperature;humidity
10443;DHT22;5269;51.146;16.986;2023-11-19T06:27:05;2.90;99.90
10443;DHT22;5269;51.146;16.986;2023-11-19T06:45:56;3.00;99.90
10443;DHT22;5269;51.146;16.986;2023-11-19T06:48:35;3.00;99.90
10443;DHT22;5269;51.146;16.986;2023-11-19T06:56:28;3.10;99.90
10443;DHT22;5269;51.146;16.986;2023-11-19T07:05:44;3.10;99.90
10443;DHT22;5269;51.146;16.986;2023-11-19T07:08:33;3.20;99.90
10443;DHT22;5269;51.146;16.986;2023-11-19T07:11:12;3.30;99.90
10443;DHT22;5269;51.146;16.986;2023-11-19T07:13:43;3.30;99.90
10443;DHT22;5269;51.146;16.986;2023-11-19T07:16:14;3.40;99.90
10443;DHT22;5269;51.146;16.986;2023-11-19T07:18:42;3.40;99.90
10443;DHT22;5269;51.146;16.986;2023-11-19T07:21:14;3.50;99.90
10443;DHT22;5269;51.146;16.986;2023-11-19T07:23:45;3.50;99.90
10443;DHT22;5269;51.146;16.986;2023-11-19T07:26:25;3.50;99.90
10443;DHT22;5269;51.146;16.986;2023-11-19T07:29:03;3.50;99.90
10443;DHT22;5269;51.146;16.986;2023-11-19T07:31:33;3.60;99.90
10443;DHT22;5269;51.146;16.986;2023-11-19T07:34:02;3.60;99.90
10443;DHT22;5269;51.146;16.986;2023-11-19T07:36:33;3.60;99.90
10443;DHT22;5269;51.146;16.986;2023-11-19T07:39:04;3.60;99.90
10443;DHT22;5269;51.146;16.986;2023-11-19T07:41:43;3.60;99.90
10443;DHT22;5269;51.146;16.986;2023-11-19T07:44:12;3.70;99.90
10443;DHT22;5269;51.146;16.986;2023-11-19T07:46:42;3.70;99.90
10443;DHT22;5269;51.146;16.986;2023-11-19T07:49:12;3.80;99.90
10443;DHT22;5269;51.146;16.986;2023-11-19T07:51:44;3.80;99.90
10443;DHT22;5269;51.146;16.986;2023-11-19T07:54:13;3.80;99.90
10443;DHT22;5269;51.146;16.986;2023-11-19T07:56:52;3.80;99.90
10443;DHT22;5269;51.146;16.986;2023-11-19T07:59:25;3.80;99.90
10443;DHT22;5269;51.146;16.986;2023-11-19T08:02:06;3.70;99.90
10443;DHT22;5269;51.146;16.986;2023-11-19T08:04:45;3.70;99.90
10443;DHT22;5269;51.146;16.986;2023-11-19T08:07:24;3.70;99.90
10443;DHT22;5269;51.146;16.986;2023-11-19T08:09:55;3.70;99.90
10443;DHT22;5269;51.146;16.986;2023-11-19T08:12:33;3.70;99.90
10443;DHT22;5269;51.146;16.986;2023-11-19T08:15:12;3.60;99.90
10443;DHT22;5269;51.146;16.986;2023-11-19T08:17:45;3.70;99.90
10443;DHT22;5269;51.146;16.986;2023-11-19T08:20:32;3.60;99.90
10443;DHT22;5269;51.146;16.986;2023-11-19T08:23:03;3.60;99.90
10443;DHT22;5269;51.146;16.986;2023-11-19T08:25:56;3.60;99.90
10443;DHT22;5269;51.146;16.986;2023-11-19T08:28:42;3.70;99.90
10443;DHT22;5269;51.146;16.986;2023-11-19T08:31:13;3.60;99.90
10443;DHT22;5269;51.146;16.986;2023-11-19T08:36:54;3.60;99.90
10443;DHT22;5269;51.146;16.986;2023-11-19T08:39:26;3.40;99.90
10443;DHT22;5269;51.146;16.986;2023-11-19T08:42:15;3.40;99.90
10443;DHT22;5269;51.146;16.986;2023-11-19T08:44:53;3.40;99.90
10443;DHT22;5269;51.146;16.986;2023-11-19T08:47:23;3.30;99.90
10443;DHT22;5269;51.146;16.986;2023-11-19T08:50:16;3.30;99.90
10443;DHT22;5269;51.146;16.986;2023-11-19T08:52:52;3.20;99.90
10443;DHT22;5269;51.146;16.986;2023-11-19T08:55:35;3.20;99.90
10443;DHT22;5269;51.146;16.986;2023-11-19T08:58:14;3.20;99.90
10443;DHT22;5269;51.146;16.986;2023-11-19T09:00:44;3.10;99.90
10443;DHT22;5269;51.146;16.986;2023-11-19T09:03:23;3.20;99.90
10443;DHT22;5269;51.146;16.986;2023-11-19T09:06:03;3.20;99.90
10443;DHT22;5269;51.146;16.986;2023-11-19T09:08:45;3.10;99.90
10443;DHT22;5269;51.146;16.986;2023-11-19T09:11:25;3.20;99.90
10443;DHT22;5269;51.146;16.986;2023-11-19T09:14:33;3.20;99.90
10443;DHT22;5269;51.146;16.986;2023-11-19T09:17:03;3.10;99.90
10443;DHT22;5269;51.146;16.986;2023-11-19T09:19:44;3.30;99.90
10443;DHT22;5269;51.146;16.986;2023-11-19T09:22:13;3.30;99.90
10443;DHT22;5269;51.146;16.986;2023-11-19T09:24:44;3.30;99.90
10443;DHT22;5269;51.146;16.986;2023-11-19T09:27:16;3.30;99.90
10443;DHT22;5269;51.146;16.986;2023-11-19T09:30:04;3.40;99.90
10443;DHT22;5269;51.146;16.986;2023-11-19T09:32:33;3.40;99.90
10443;DHT22;5269;51.146;16.986;2023-11-19T09:35:14;3.40;99.90
10443;DHT22;5269;51.146;16.986;2023-11-19T09:37:45;3.40;99.90
10443;DHT22;5269;51.146;16.986;2023-11-19T09:43:16;3.50;99.90
10443;DHT22;5269;51.146;16.986;2023-11-19T09:51:33;3.60;99.90
10443;DHT22;5269;51.146;16.986;2023-11-19T09:54:04;3.70;99.90
10443;DHT22;5269;51.146;16.986;2023-11-19T09:56:36;3.70;99.90
10443;DHT22;5269;51.146;16.986;2023-11-19T09:59:14;3.70;99.90
10443;DHT22;5269;51.146;16.986;2023-11-19T10:01:53;3.80;99.90
10443;DHT22;5269;51.146;16.986;2023-11-19T10:04:43;3.80;99.90
10443;DHT22;5269;51.146;16.986;2023-11-19T10:07:12;3.80;99.90
10443;DHT22;5269;51.146;16.986;2023-11-19T10:10:03;3.90;99.90
10443;DHT22;5269;51.146;16.986;2023-11-19T10:12:42;3.90;99.90
10443;DHT22;5269;51.146;16.986;2023-11-19T10:15:25;3.90;99.90
10443;DHT22;5269;51.146;16.986;2023-11-19T10:18:06;4.00;99.90
10443;DHT22;5269;51.146;16.986;2023-11-19T10:20:44;4.00;99.90
10443;DHT22;5269;51.146;16.986;2023-11-19T10:26:05;4.20;99.90
10443;DHT22;5269;51.146;16.986;2023-11-19T10:28:43;4.40;99.90
10443;DHT22;5269;51.146;16.986;2023-11-19T10:31:17;4.50;99.90
10443;DHT22;5269;51.146;16.986;2023-11-19T10:34:24;4.60;99.90
10443;DHT22;5269;51.146;16.986;2023-11-19T10:37:03;4.60;99.90
10443;DHT22;5269;51.146;16.986;2023-11-19T10:40:14;4.70;99.90
10443;DHT22;5269;51.146;16.986;2023-11-19T10:43:05;4.70;99.90
10443;DHT22;5269;51.146;16.986;2023-11-19T10:45:43;4.70;99.90
10443;DHT22;5269;51.146;16.986;2023-11-19T10:48:24;4.80;99.90
10443;DHT22;5269;51.146;16.986;2023-11-19T10:51:02;4.80;99.90
10443;DHT22;5269;51.146;16.986;2023-11-19T10:53:54;4.80;99.90
10443;DHT22;5269;51.146;16.986;2023-11-19T10:58:56;4.80;99.90
10443;DHT22;5269;51.146;16.986;2023-11-19T10:59:55;4.80;99.90
10443;DHT22;5269;51.146;16.986;2023-11-19T11:02:36;4.80;99.90
10443;DHT22;5269;51.146;16.986;2023-11-19T11:05:24;4.80;99.90
10443;DHT22;5269;51.146;16.986;2023-11-19T11:08:06;4.70;99.90
10443;DHT22;5269;51.146;16.986;2023-11-19T11:10:45;4.70;99.90
10443;DHT22;5269;51.146;16.986;2023-11-19T11:13:42;4.60;99.90
10443;DHT22;5269;51.146;16.986;2023-11-19T11:16:13;4.70;99.90
10443;DHT22;5269;51.146;16.986;2023-11-19T11:18:44;4.70;99.90
10443;DHT22;5269;51.146;16.986;2023-11-19T11:21:15;4.70;99.90
10443;DHT22;5269;51.146;16.986;2023-11-19T11:24:43;4.80;99.90
10443;DHT22;5269;51.146;16.986;2023-11-19T11:28:04;4.70;99.90
10443;DHT22;5269;51.146;16.986;2023-11-19T11:30:55;4.80;99.90
10443;DHT22;5269;51.146;16.986;2023-11-19T11:34:02;4.70;99.90
10443;DHT22;5269;51.146;16.986;2023-11-19T11:36:36;4.70;99.90
10443;DHT22;5269;51.146;16.986;2023-11-19T11:39:25;4.80;99.90
10443;DHT22;5269;51.146;16.986;2023-11-19T11:42:34;4.80;99.90
10443;DHT22;5269;51.146;16.986;2023-11-19T11:45:13;4.80;99.90
10443;DHT22;5269;51.146;16.986;2023-11-19T11:48:14;4.80;99.90
10443;DHT22;5269;51.146;16.986;2023-11-19T11:51:02;4.80;99.90
10443;DHT22;5269;51.146;16.986;2023-11-19T11:53:35;4.90;99.90
10443;DHT22;5269;51.146;16.986;2023-11-19T11:56:23;4.90;99.90
10443;DHT22;5269;51.146;16.986;2023-11-19T11:58:55;5.00;99.90
10443;DHT22;5269;51.146;16.986;2023-11-19T12:01:25;5.00;99.90
10443;DHT22;5269;51.146;16.986;2023-11-19T12:04:56;5.00;99.90
10443;DHT22;5269;51.146;16.986;2023-11-19T12:07:54;5.10;99.90
10443;DHT22;5269;51.146;16.986;2023-11-19T12:31:55;5.40;99.90
10443;DHT22;5269;51.146;16.986;2023-11-19T12:34:34;5.50;99.90
10443;DHT22;5269;51.146;16.986;2023-11-19T12:37:05;5.60;99.90
10443;DHT22;5269;51.146;16.986;2023-11-19T12:39:45;5.60;99.90
10443;DHT22;5269;51.146;16.986;2023-11-19T12:43:05;5.60;99.90
10443;DHT22;5269;51.146;16.986;2023-11-19T12:49:05;5.90;99.90
10443;DHT22;5269;51.146;16.986;2023-11-19T12:51:36;5.90;99.90
10443;DHT22;5269;51.146;16.986;2023-11-19T12:54:30;6.10;99.90
10443;DHT22;5269;51.146;16.986;2023-11-19T12:57:16;6.10;99.90
10443;DHT22;5269;51.146;16.986;2023-11-19T13:00:03;6.20;99.90
10443;DHT22;5269;51.146;16.986;2023-11-19T13:02:46;6.30;99.90
10443;DHT22;5269;51.146;16.986;2023-11-19T13:05:47;6.40;99.90
10443;DHT22;5269;51.146;16.986;2023-11-19T13:08:24;6.50;99.90
10443;DHT22;5269;51.146;16.986;2023-11-19T13:11:07;6.50;99.90
10443;DHT22;5269;51.146;16.986;2023-11-19T13:13:56;6.50;99.90
10443;DHT22;5269;51.146;16.986;2023-11-19T13:16:44;6.50;99.90
10443;DHT22;5269;51.146;16.986;2023-11-19T13:20:25;6.50;99.90
10443;DHT22;5269;51.146;16.986;2023-11-19T13:23:06;6.60;99.90
10443;DHT22;5269;51.146;16.986;2023-11-19T13:25:45;6.50;99.90
10443;DHT22;5269;51.146;16.986;2023-11-19T13:28:32;6.60;99.90
10443;DHT22;5269;51.146;16.986;2023-11-19T13:31:03;6.60;99.90
10443;DHT22;5269;51.146;16.986;2023-11-19T13:33:54;6.60;99.90
10443;DHT22;5269;51.146;16.986;2023-11-19T13:36:45;6.70;99.90
10443;DHT22;5269;51.146;16.986;2023-11-19T13:39:26;6.70;99.90
10443;DHT22;5269;51.146;16.986;2023-11-19T13:42:05;6.80;99.90
10443;DHT22;5269;51.146;16.986;2023-11-19T13:44:56;6.80;99.90
10443;DHT22;5269;51.146;16.986;2023-11-19T13:47:55;6.80;99.90
10443;DHT22;5269;51.146;16.986;2023-11-19T13:50:32;6.80;99.90
10443;DHT22;5269;51.146;16.986;2023-11-19T13:53:06;6.90;99.90
10443;DHT22;5269;51.146;16.986;2023-11-19T13:55:57;7.00;99.90
10443;DHT22;5269;51.146;16.986;2023-11-19T13:58:53;7.00;99.90
10443;DHT22;5269;51.146;16.986;2023-11-19T14:01:45;7.10;99.90
10443;DHT22;5269;51.146;16.986;2023-11-19T14:04:13;7.10;99.90
10443;DHT22;5269;51.146;16.986;2023-11-19T14:06:45;7.30;99.90
10443;DHT22;5269;51.146;16.986;2023-11-19T14:09:16;7.40;99.90
10443;DHT22;5269;51.146;16.986;2023-11-19T14:11:55;7.30;99.90
10443;DHT22;5269;51.146;16.986;2023-11-19T14:14:56;7.30;99.90
10443;DHT22;5269;51.146;16.986;2023-11-19T14:18:06;7.20;99.90
10443;DHT22;5269;51.146;16.986;2023-11-19T14:24:17;7.10;99.90
10443;DHT22;5269;51.146;16.986;2023-11-19T14:27:15;7.10;99.90
10443;DHT22;5269;51.146;16.986;2023-11-19T14:29:46;7.20;99.90
10443;DHT22;5269;51.146;16.986;2023-11-19T14:32:34;7.20;99.90
10443;DHT22;5269;51.146;16.986;2023-11-19T14:35:25;7.20;99.90
10443;DHT22;5269;51.146;16.986;2023-11-19T14:39:15;7.10;99.90
10443;DHT22;5269;51.146;16.986;2023-11-19T14:41:25;7.00;99.90
10443;DHT22;5269;51.146;16.986;2023-11-19T14:50:25;7.10;99.90
10443;DHT22;5269;51.146;16.986;2023-11-19T14:53:14;7.10;99.90
10443;DHT22;5269;51.146;16.986;2023-11-19T14:55:47;7.20;99.90
10443;DHT22;5269;51.146;16.986;2023-11-19T14:58:25;7.20;99.90
10443;DHT22;5269;51.146;16.986;2023-11-19T15:00:54;7.20;99.90
10443;DHT22;5269;51.146;16.986;2023-11-19T15:03:27;7.30;99.90
10443;DHT22;5269;51.146;16.986;2023-11-19T15:06:14;7.40;99.90
10443;DHT22;5269;51.146;16.986;2023-11-19T15:11:34;7.50;99.90
10443;DHT22;5269;51.146;16.986;2023-11-19T15:26:16;7.40;99.90
10443;DHT22;5269;51.146;16.986;2023-11-19T15:34:45;7.40;99.90
10443;DHT22;5269;51.146;16.986;2023-11-19T15:40:26;7.30;99.90
10443;DHT22;5269;51.146;16.986;2023-11-19T15:43:57;7.40;99.90
10443;DHT22;5269;51.146;16.986;2023-11-19T15:46:35;7.30;99.90
10443;DHT22;5269;51.146;16.986;2023-11-19T15:49:17;7.40;99.90
10443;DHT22;5269;51.146;16.986;2023-11-19T15:51:53;7.40;99.90
10443;DHT22;5269;51.146;16.986;2023-11-19T15:56:44;7.40;99.90
10443;DHT22;5269;51.146;16.986;2023-11-19T15:57:45;7.50;99.90
10443;DHT22;5269;51.146;16.986;2023-11-19T16:00:36;7.60;99.90
10443;DHT22;5269;51.146;16.986;2023-11-19T16:03:03;7.80;99.90
10443;DHT22;5269;51.146;16.986;2023-11-19T16:06:03;7.80;99.90
10443;DHT22;5269;51.146;16.986;2023-11-19T16:08:45;8.00;99.90
10443;DHT22;5269;51.146;16.986;2023-11-19T16:11:14;8.20;99.90
10443;DHT22;5269;51.146;16.986;2023-11-19T16:13:55;8.40;99.90
10443;DHT22;5269;51.146;16.986;2023-11-19T16:16:23;8.50;99.90
10443;DHT22;5269;51.146;16.986;2023-11-19T16:32:27;8.20;99.90
10443;DHT22;5269;51.146;16.986;2023-11-19T16:34:54;8.20;99.90
10443;DHT22;5269;51.146;16.986;2023-11-19T16:37:49;8.20;99.90
10443;DHT22;5269;51.146;16.986;2023-11-19T16:49:04;8.10;99.90
10443;DHT22;5269;51.146;16.986;2023-11-19T16:52:06;8.10;99.90
10443;DHT22;5269;51.146;16.986;2023-11-19T17:00:02;8.10;99.90
10443;DHT22;5269;51.146;16.986;2023-11-19T17:02:47;8.20;99.90
10443;DHT22;5269;51.146;16.986;2023-11-19T17:08:43;8.20;99.90
10443;DHT22;5269;51.146;16.986;2023-11-19T17:11:25;8.40;99.90
10443;DHT22;5269;51.146;16.986;2023-11-19T17:17:05;8.50;99.90
10443;DHT22;5269;51.146;16.986;2023-11-19T17:20:07;8.60;99.90
10443;DHT22;5269;51.146;16.986;2023-11-19T17:28:57;8.60;99.90
10443;DHT22;5269;51.146;16.986;2023-11-19T17:37:37;8.60;99.90
10443;DHT22;5269;51.146;16.986;2023-11-19T17:40:23;8.50;99.90
10443;DHT22;5269;51.146;16.986;2023-11-19T17:43:04;8.40;99.90
10443;DHT22;5269;51.146;16.986;2023-11-19T17:45:34;8.40;99.90
10443;DHT22;5269;51.146;16.986;2023-11-19T18:27:45;8.40;99.90
10443;DHT22;5269;51.146;16.986;2023-11-19T18:35:55;8.50;99.90
10443;DHT22;5269;51.146;16.986;2023-11-19T19:10:15;9.10;1.00
10443;DHT22;5269;51.146;16.986;2023-11-19T19:12:54;9.10;1.00
10443;DHT22;5269;51.146;16.986;2023-11-19T19:15:27;9.00;1.00
10443;DHT22;5269;51.146;16.986;2023-11-19T19:18:17;9.10;1.00
10443;DHT22;5269;51.146;16.986;2023-11-19T19:20:53;9.00;1.00
10443;DHT22;5269;51.146;16.986;2023-11-19T19:23:26;9.00;94.40
10443;DHT22;5269;51.146;16.986;2023-11-19T19:26:05;8.90;99.90
10443;DHT22;5269;51.146;16.986;2023-11-19T19:39:47;8.60;99.90
10443;DHT22;5269;51.146;16.986;2023-11-19T19:47:07;8.50;99.90
10443;DHT22;5269;51.146;16.986;2023-11-19T19:49:56;8.60;99.90
10443;DHT22;5269;51.146;16.986;2023-11-19T19:55:45;8.60;99.90
10443;DHT22;5269;51.146;16.986;2023-11-19T19:58:14;8.70;99.90
10443;DHT22;5269;51.146;16.986;2023-11-19T20:05:57;8.60;99.90
10443;DHT22;5269;51.146;16.986;2023-11-19T20:08:46;8.70;99.90
10443;DHT22;5269;51.146;16.986;2023-11-19T20:11:40;8.60;99.90
10443;DHT22;5269;51.146;16.986;2023-11-19T20:17:24;8.60;99.90
10443;DHT22;5269;51.146;16.986;2023-11-19T20:18:23;8.60;99.90
10443;DHT22;5269;51.146;16.986;2023-11-19T21:23:04;10.00;1.00
10443;DHT22;5269;51.146;16.986;2023-11-19T21:42:08;9.70;99.90
10443;DHT22;5269;51.146;16.986;2023-11-19T21:53:07;9.40;99.90
10443;DHT22;5269;51.146;16.986;2023-11-19T21:56:17;9.30;99.90
10443;DHT22;5269;51.146;16.986;2023-11-19T22:21:54;9.20;99.90
10443;DHT22;5269;51.146;16.986;2023-11-19T22:24:34;9.10;99.90
10443;DHT22;5269;51.146;16.986;2023-11-19T22:27:13;9.10;99.90
10443;DHT22;5269;51.146;16.986;2023-11-19T22:29:54;9.10;99.90
10443;DHT22;5269;51.146;16.986;2023-11-19T22:32:46;9.10;99.90
10443;DHT22;5269;51.146;16.986;2023-11-19T22:38:48;8.90;99.90
10443;DHT22;5269;51.146;16.986;2023-11-19T22:41:37;8.90;99.90
10443;DHT22;5269;51.146;16.986;2023-11-19T22:44:47;8.80;99.90
10443;DHT22;5269;51.146;16.986;2023-11-19T22:47:27;8.90;99.90
10443;DHT22;5269;51.146;16.986;2023-11-19T22:50:15;8.80;99.90
10443;DHT22;5269;51.146;16.986;2023-11-19T22:52:46;8.80;99.90
10443;DHT22;5269;51.146;16.986;2023-11-19T22:55:26;8.80;99.90
10443;DHT22;5269;51.146;16.986;2023-11-19T22:57:56;8.70;99.90
10443;DHT22;5269;51.146;16.986;2023-11-19T23:00:26;8.70;99.90
10443;DHT22;5269;51.146;16.986;2023-11-19T23:03:05;8.70;99.90
